Time;durP1;ratioP1;P1;durP2;ratioP2;P2;SDS_P1;SDS_P2;PMS_P1;PMS_P2;Temp;Humidity;BMP_temperature;BMP_pressure;BME280_temperature;BME280_humidity;BME280_pressure;Samples;Min_cycle;Max_cycle;Signal;HPM_P1;HPM_P2
2023/09/10 00:05:02;;;;;;;7.75;5.20;;;13.50;99.90;;;;;;21037257;28;20370;-61
2023/09/10 00:15:05;;;;;;;9.30;6.53;;;13.10;99.90;;;;;;21054331;28;20078;-63
2023/09/10 00:25:07;;;;;;;10.57;7.63;;;13.00;99.90;;;;;;21053849;28;20036;-65
2023/09/10 00:35:09;;;;;;;10.85;7.43;;;12.70;99.90;;;;;;21053397;28;20047;-64
2023/09/10 00:45:12;;;;;;;7.07;6.05;;;12.60;99.90;;;;;;21014999;28;20028;-63
2023/09/10 00:55:16;;;;;;;7.10;5.65;;;12.80;99.90;;;;;;21011192;28;20538;-59
2023/09/10 01:05:18;;;;;;;9.13;7.68;;;13.00;99.90;;;;;;21058369;28;20043;-59
2023/09/10 01:15:28;;;;;;;10.75;7.75;;;13.10;99.90;;;;;;21025854;28;20056;-59
2023/09/10 01:25:31;;;;;;;;;;;13.10;99.90;;;;;;21028460;28;20028;-60
2023/09/10 01:36:02;;;;;;;11.02;9.52;;;13.00;99.90;;;;;;21045497;28;19982;-60
2023/09/10 01:46:06;;;;;;;14.85;9.27;;;13.10;99.90;;;;;;20642534;28;20069;-62
2023/09/10 01:56:08;;;;;;;15.00;10.45;;;13.20;99.90;;;;;;20624215;28;20464;-62
2023/09/10 02:06:10;;;;;;;13.18;10.32;;;12.90;99.90;;;;;;20621947;28;20046;-56
2023/09/10 02:16:12;;;;;;;12.82;10.30;;;12.70;99.90;;;;;;20694271;28;20098;-62
2023/09/10 02:26:15;;;;;;;16.27;11.43;;;12.80;99.90;;;;;;20980611;28;20167;-56
2023/09/10 02:36:17;;;;;;;13.32;9.05;;;12.70;99.90;;;;;;20939064;28;20351;-61
2023/09/10 02:46:19;;;;;;;14.85;12.20;;;12.80;99.90;;;;;;20933095;28;20036;-55
2023/09/10 02:56:21;;;;;;;18.60;14.10;;;12.60;99.90;;;;;;20955761;28;20393;-56
2023/09/10 03:06:23;;;;;;;23.73;16.98;;;12.50;99.90;;;;;;20963889;28;20060;-63
2023/09/10 03:16:25;;;;;;;25.55;20.42;;;12.30;99.90;;;;;;21044223;28;20111;-56
2023/09/10 03:26:27;;;;;;;26.40;20.77;;;12.60;99.90;;;;;;21056382;28;20028;-56
2023/09/10 03:36:29;;;;;;;27.08;22.35;;;12.80;99.90;;;;;;21017553;28;20388;-57
2023/09/10 03:46:31;;;;;;;25.48;20.23;;;12.70;99.90;;;;;;21007649;28;20097;-56
2023/09/10 03:56:33;;;;;;;30.30;21.67;;;12.70;99.90;;;;;;21004759;28;20036;-63
2023/09/10 04:06:35;;;;;;;31.63;22.40;;;12.70;99.90;;;;;;21015229;28;20045;-63
2023/09/10 04:16:37;;;;;;;35.15;26.05;;;12.60;99.90;;;;;;20997518;28;20043;-62
2023/09/10 04:26:39;;;;;;;34.28;25.83;;;12.70;99.90;;;;;;21036990;28;20051;-63
2023/09/10 04:36:41;;;;;;;29.63;22.90;;;12.80;99.90;;;;;;20998384;28;20036;-63
2023/09/10 04:46:43;;;;;;;29.30;22.90;;;12.70;99.90;;;;;;20986263;28;20028;-63
2023/09/10 04:56:47;;;;;;;34.30;23.23;;;12.50;99.90;;;;;;21001248;28;20028;-61
2023/09/10 05:06:50;;;;;;;31.75;23.58;;;12.60;99.90;;;;;;21005834;28;20405;-56
2023/09/10 05:16:54;;;;;;;27.65;21.92;;;12.70;99.90;;;;;;20981785;28;20045;-63
2023/09/10 05:26:56;;;;;;;28.02;22.67;;;13.00;99.90;;;;;;20987653;28;20048;-62
2023/09/10 05:36:59;;;;;;;28.42;21.85;;;13.20;99.90;;;;;;21000863;28;20032;-54
2023/09/10 05:47:01;;;;;;;25.30;19.38;;;13.40;99.90;;;;;;21003985;28;20041;-56
2023/09/10 05:57:03;;;;;;;23.27;18.92;;;13.60;99.90;;;;;;21008123;28;20042;-62
2023/09/10 06:07:05;;;;;;;19.75;16.77;;;13.90;99.90;;;;;;21029814;28;20078;-63
2023/09/10 06:17:08;;;;;;;18.38;16.15;;;14.10;99.90;;;;;;21013581;28;20535;-63
2023/09/10 06:27:10;;;;;;;16.98;15.18;;;14.40;99.90;;;;;;21011870;28;20028;-63
2023/09/10 06:37:12;;;;;;;16.63;14.30;;;14.60;99.90;;;;;;21016786;28;20040;-63
2023/09/10 06:47:15;;;;;;;16.15;13.30;;;14.90;99.90;;;;;;21013454;28;20028;-62
2023/09/10 06:57:17;;;;;;;16.23;12.73;;;15.70;99.90;;;;;;21031517;28;20031;-60
2023/09/10 07:07:18;;;;;;;12.55;11.20;;;16.90;99.90;;;;;;21030619;28;20040;-61
2023/09/10 07:17:20;;;;;;;12.68;10.50;;;18.00;99.90;;;;;;21002845;28;20055;-61
2023/09/10 07:27:22;;;;;;;9.95;8.93;;;19.00;99.90;;;;;;21038285;28;20036;-61
2023/09/10 07:37:23;;;;;;;10.07;9.07;;;20.00;99.90;;;;;;21012876;28;20024;-60
2023/09/10 07:47:25;;;;;;;11.23;9.10;;;20.80;99.90;;;;;;21013641;28;20055;-55
2023/09/10 07:57:27;;;;;;;11.98;9.45;;;21.20;99.90;;;;;;21001926;28;20043;-56
2023/09/10 08:07:31;;;;;;;9.90;8.90;;;21.90;99.90;;;;;;21004460;28;20041;-61
2023/09/10 08:17:38;;;;;;;9.93;8.30;;;22.30;99.90;;;;;;21005199;28;20028;-59
2023/09/10 08:27:42;;;;;;;9.30;8.40;;;22.80;99.90;;;;;;20995232;28;20048;-60
2023/09/10 08:37:45;;;;;;;10.65;8.15;;;23.30;99.90;;;;;;21008232;28;20036;-59
2023/09/10 08:47:53;;;;;;;9.23;8.25;;;23.70;99.90;;;;;;20999903;28;20048;-60
2023/09/10 08:58:03;;;;;;;10.25;8.52;;;24.00;99.90;;;;;;21025300;28;20028;-60
2023/09/10 09:08:18;;;;;;;9.52;8.23;;;24.00;99.90;;;;;;20980223;28;20090;-60
2023/09/10 09:18:21;;;;;;;11.02;9.85;;;24.50;99.90;;;;;;21005593;28;20483;-60
2023/09/10 09:28:27;;;;;;;9.60;8.68;;;24.70;99.90;;;;;;21019030;28;20393;-59
2023/09/10 09:38:30;;;;;;;10.40;8.88;;;24.60;99.90;;;;;;21017248;28;20071;-60
2023/09/10 09:48:35;;;;;;;9.25;8.02;;;24.80;99.90;;;;;;21019000;28;20036;-60
2023/09/10 09:58:42;;;;;;;10.60;9.38;;;25.30;99.90;;;;;;21020413;28;20043;-59
2023/09/10 10:08:52;;;;;;;11.18;9.48;;;25.20;99.90;;;;;;21028148;28;20091;-54
2023/09/10 10:18:56;;;;;;;10.50;9.55;;;25.50;99.90;;;;;;21042130;28;20074;-59
2023/09/10 10:29:00;;;;;;;11.60;10.50;;;25.40;99.90;;;;;;21018483;28;20036;-59
2023/09/10 10:39:09;;;;;;;11.82;10.27;;;25.40;99.90;;;;;;21034793;28;20041;-59
2023/09/10 10:49:12;;;;;;;12.32;10.35;;;25.50;99.90;;;;;;21025619;28;20024;-54
2023/09/10 10:59:16;;;;;;;12.18;10.88;;;25.70;99.90;;;;;;21006215;28;20027;-59
2023/09/10 11:09:39;;;;;;;10.57;9.30;;;25.80;99.90;;;;;;21017618;28;20040;-58
2023/09/10 11:19:47;;;;;;;9.90;9.00;;;25.50;99.90;;;;;;21012277;28;20040;-59
2023/09/10 11:30:19;;;;;;;14.80;8.48;;;25.80;99.90;;;;;;21011003;28;20098;-58
2023/09/10 11:40:24;;;;;;;8.75;7.85;;;26.00;99.90;;;;;;21009049;28;20028;-56
2023/09/10 11:50:28;;;;;;;11.57;7.35;;;26.40;99.90;;;;;;21001035;28;20048;-59
2023/09/10 12:00:36;;;;;;;11.45;7.75;;;26.60;99.90;;;;;;21005182;28;20048;-59
2023/09/10 12:10:45;;;;;;;9.32;7.82;;;26.10;99.90;;;;;;21004612;28;20044;-60
2023/09/10 12:20:49;;;;;;;8.30;7.43;;;26.30;99.90;;;;;;20759454;28;20100;-59
2023/09/10 12:30:57;;;;;;;9.10;7.97;;;26.20;99.90;;;;;;20755848;28;20146;-59
2023/09/10 12:41:00;;;;;;;11.93;7.50;;;26.20;99.90;;;;;;20779995;28;20103;-59
2023/09/10 12:51:05;;;;;;;11.52;8.90;;;26.60;99.90;;;;;;20804134;28;20413;-59
2023/09/10 13:01:14;;;;;;;9.93;8.40;;;26.50;99.70;;;;;;21010153;28;20082;-59
2023/09/10 13:11:22;;;;;;;9.70;7.68;;;26.50;99.90;;;;;;21013402;28;20060;-60
2023/09/10 13:21:35;;;;;;;9.95;8.65;;;26.50;99.90;;;;;;21008131;28;20094;-60
2023/09/10 13:31:41;;;;;;;9.20;7.65;;;26.30;99.90;;;;;;20988946;28;20477;-56
2023/09/10 13:41:47;;;;;;;7.72;7.03;;;26.30;99.90;;;;;;21008044;28;20484;-58
2023/09/10 13:51:53;;;;;;;8.80;7.90;;;26.20;99.90;;;;;;20991262;28;20535;-59
2023/09/10 14:02:02;;;;;;;8.85;7.88;;;26.20;99.90;;;;;;20997984;28;20040;-59
2023/09/10 14:12:06;;;;;;;11.60;8.57;;;26.00;99.90;;;;;;21011408;28;20094;-60
2023/09/10 14:22:10;;;;;;;10.80;8.45;;;25.60;98.30;;;;;;21012057;28;20044;-60
2023/09/10 14:32:24;;;;;;;12.48;7.93;;;25.10;98.20;;;;;;20992124;28;20032;-61
2023/09/10 14:42:39;;;;;;;10.55;8.20;;;24.70;99.90;;;;;;20975428;28;20049;-62
2023/09/10 14:52:43;;;;;;;12.05;7.90;;;24.50;99.90;;;;;;21036801;28;20089;-63
2023/09/10 15:02:49;;;;;;;10.15;8.73;;;24.40;99.90;;;;;;21032118;28;20077;-64
2023/09/10 15:12:54;;;;;;;9.93;8.88;;;23.90;99.90;;;;;;21027494;28;20044;-63
2023/09/10 15:23:05;;;;;;;9.48;8.57;;;22.90;99.90;;;;;;21008695;28;20441;-63
2023/09/10 15:33:08;;;;;;;11.65;9.30;;;22.10;99.90;;;;;;21015643;28;20517;-63
2023/09/10 15:43:11;;;;;;;10.52;9.15;;;21.60;99.90;;;;;;21020643;28;20036;-63
2023/09/10 15:53:16;;;;;;;14.40;9.30;;;21.00;99.90;;;;;;21022320;28;20048;-62
2023/09/10 16:03:21;;;;;;;9.57;7.53;;;20.40;99.90;;;;;;21007101;28;20384;-62
2023/09/10 16:13:26;;;;;;;14.35;10.05;;;19.10;99.90;;;;;;21015850;28;20040;-59
2023/09/10 16:23:30;;;;;;;11.52;9.85;;;18.20;99.90;;;;;;21013865;28;20062;-61
2023/09/10 16:33:34;;;;;;;12.43;9.23;;;17.60;99.90;;;;;;21017423;28;20104;-62
2023/09/10 16:43:36;;;;;;;8.77;7.88;;;17.20;99.90;;;;;;21046746;28;20086;-62
2023/09/10 16:53:44;;;;;;;8.50;7.63;;;16.90;99.90;;;;;;20962709;28;20043;-62
2023/09/10 17:03:49;;;;;;;10.37;9.23;;;16.70;99.90;;;;;;21049664;28;20092;-62
2023/09/10 17:13:53;;;;;;;9.80;8.48;;;16.50;99.90;;;;;;20982158;28;20055;-61
2023/09/10 17:24:00;;;;;;;10.75;9.65;;;16.20;99.90;;;;;;21002632;28;20526;-52
2023/09/10 17:34:04;;;;;;;13.57;11.18;;;15.80;99.90;;;;;;21050954;28;20036;-53
2023/09/10 17:44:06;;;;;;;14.82;11.50;;;15.70;99.90;;;;;;21050254;28;20032;-52
2023/09/10 17:54:13;;;;;;;13.07;10.88;;;15.50;99.90;;;;;;21064074;28;20024;-62
2023/09/10 18:04:20;;;;;;;15.27;11.27;;;15.50;99.90;;;;;;21050357;28;20040;-53
2023/09/10 18:14:25;;;;;;;14.02;12.55;;;15.50;99.90;;;;;;21062879;28;20451;-61
2023/09/10 18:24:29;;;;;;;16.13;13.45;;;15.20;99.90;;;;;;21062572;28;20097;-61
2023/09/10 18:34:32;;;;;;;16.67;14.95;;;15.00;99.90;;;;;;21063226;28;20047;-61
2023/09/10 18:44:36;;;;;;;16.63;14.82;;;14.80;99.90;;;;;;21061643;28;20530;-62
2023/09/10 18:54:40;;;;;;;18.63;16.33;;;14.60;99.90;;;;;;21061030;28;20077;-61
2023/09/10 19:04:45;;;;;;;19.48;14.85;;;14.60;99.90;;;;;;21040140;28;20061;-62
2023/09/10 19:14:48;;;;;;;16.85;12.90;;;14.70;99.90;;;;;;21040565;28;20044;-62
2023/09/10 19:24:54;;;;;;;20.48;14.77;;;14.90;99.90;;;;;;21061016;28;20554;-56
2023/09/10 19:35:00;;;;;;;17.70;15.80;;;14.90;99.90;;;;;;21060836;28;20539;-62
2023/09/10 19:45:03;;;;;;;19.08;16.63;;;14.90;99.90;;;;;;21058095;28;20042;-61
2023/09/10 19:55:08;;;;;;;19.23;15.77;;;14.60;99.90;;;;;;21054459;28;20081;-62
2023/09/10 20:05:18;;;;;;;14.73;13.20;;;14.30;99.90;;;;;;21016752;28;20044;-61
2023/09/10 20:15:20;;;;;;;11.00;9.90;;;14.10;99.90;;;;;;20989736;28;20052;-62
2023/09/10 20:25:27;;;;;;;10.20;8.48;;;13.90;99.90;;;;;;21055872;28;20067;-55
2023/09/10 20:35:30;;;;;;;8.50;7.60;;;13.90;99.90;;;;;;21056281;28;20032;-62
2023/09/10 20:45:36;;;;;;;10.73;8.52;;;13.90;99.90;;;;;;21021674;28;20044;-63
2023/09/10 20:55:41;;;;;;;11.05;7.97;;;13.70;99.90;;;;;;21054664;28;20074;-62
2023/09/10 21:05:45;;;;;;;8.85;7.32;;;13.60;99.90;;;;;;21039150;28;20050;-57
2023/09/10 21:15:49;;;;;;;7.35;5.78;;;13.60;99.90;;;;;;21054207;28;20051;-62
2023/09/10 21:25:56;;;;;;;10.02;6.50;;;13.40;99.90;;;;;;21064639;28;20042;-63
2023/09/10 21:36:09;;;;;;;10.02;7.53;;;13.30;99.90;;;;;;21068311;28;20090;-63
2023/09/10 21:46:14;;;;;;;6.63;5.68;;;13.20;99.90;;;;;;21069908;28;20426;-63
2023/09/10 21:56:16;;;;;;;6.45;5.72;;;13.20;99.90;;;;;;21068711;28;20036;-64
2023/09/10 22:06:20;;;;;;;7.68;5.20;;;13.20;99.90;;;;;;21067244;28;20550;-62
2023/09/10 22:16:23;;;;;;;11.27;9.27;;;12.90;99.90;;;;;;21049564;28;20032;-52
2023/09/10 22:26:26;;;;;;;10.70;7.95;;;12.80;99.90;;;;;;21066785;28;20040;-63
2023/09/10 22:36:28;;;;;;;10.90;8.43;;;12.70;99.90;;;;;;21064459;28;20032;-63
2023/09/10 22:46:30;;;;;;;9.95;7.60;;;12.90;99.90;;;;;;21065351;28;20024;-63
2023/09/10 22:56:33;;;;;;;6.10;4.38;;;12.90;99.90;;;;;;21010875;28;20032;-63
2023/09/10 23:06:35;;;;;;;7.22;4.15;;;12.80;99.90;;;;;;21009272;28;20048;-63
2023/09/10 23:16:37;;;;;;;5.45;4.00;;;12.60;99.90;;;;;;21062981;28;20036;-63
2023/09/10 23:26:40;;;;;;;6.40;4.13;;;12.70;99.90;;;;;;21056293;28;20085;-63
2023/09/10 23:36:42;;;;;;;6.53;4.13;;;12.40;99.90;;;;;;21060957;28;20039;-63
2023/09/10 23:46:43;;;;;;;7.95;5.25;;;13.00;99.90;;;;;;21061314;28;20441;-64
2023/09/10 23:56:45;;;;;;;6.75;5.40;;;13.00;99.90;;;;;;21059140;28;20465;-56
